createdAt,value
2022-10-11T00:02:15.476Z,96.20
2022-10-11T00:04:42.242Z,96.20
2022-10-11T00:07:11.488Z,96.30
2022-10-11T00:09:40.172Z,96.30
2022-10-11T00:12:06.975Z,96.40
2022-10-11T00:14:34.092Z,96.50
2022-10-11T00:17:00.963Z,96.50
2022-10-11T00:19:27.681Z,96.40
2022-10-11T00:21:54.617Z,96.60
2022-10-11T00:24:21.444Z,96.70
2022-10-11T00:26:48.185Z,96.80
2022-10-11T00:29:14.953Z,96.90
2022-10-11T00:31:41.734Z,96.90
2022-10-11T00:34:08.746Z,96.80
2022-10-11T00:36:35.508Z,96.80
2022-10-11T00:39:02.525Z,96.70
2022-10-11T00:41:29.373Z,96.60
2022-10-11T00:44:19.573Z,96.70
2022-10-11T00:47:01.626Z,96.80
2022-10-11T00:49:38.823Z,96.90
2022-10-11T00:52:17.087Z,97.00
2022-10-11T00:54:48.124Z,96.90
2022-10-11T00:57:22.380Z,96.90
2022-10-11T00:59:52.782Z,96.80
2022-10-11T01:02:20.398Z,96.90
2022-10-11T01:05:01.038Z,96.90
2022-10-11T01:07:37.462Z,96.90
2022-10-11T01:10:04.761Z,96.80
2022-10-11T01:12:32.127Z,96.90
2022-10-11T01:15:21.020Z,97.00
2022-10-11T01:18:10.227Z,97.00
2022-10-11T01:21:20.052Z,97.10
2022-10-11T01:24:21.426Z,97.00
2022-10-11T01:27:03.380Z,97.10
2022-10-11T01:29:42.071Z,97.20
2022-10-11T01:32:19.063Z,97.30
2022-10-11T01:34:56.002Z,97.30
2022-10-11T01:37:40.673Z,97.40
2022-10-11T01:40:10.038Z,97.50
2022-10-11T01:42:39.275Z,97.50
2022-10-11T01:45:09.463Z,97.50
2022-10-11T01:47:36.259Z,97.30
2022-10-11T01:50:03.466Z,97.40
2022-10-11T01:52:33.936Z,97.30
2022-10-11T01:55:09.611Z,97.30
2022-10-11T01:58:16.161Z,97.30
2022-10-11T02:01:20.167Z,97.20
2022-10-11T02:03:55.193Z,97.20
2022-10-11T02:06:57.552Z,97.20
2022-10-11T02:09:31.737Z,97.20
2022-10-11T02:12:10.621Z,97.10
2022-10-11T02:14:47.025Z,97.00
2022-10-11T02:17:20.183Z,96.90
2022-10-11T02:19:53.445Z,96.70
2022-10-11T02:22:26.270Z,96.80
2022-10-11T02:24:57.810Z,96.70
2022-10-11T02:27:28.312Z,96.90
2022-10-11T02:29:56.789Z,97.10
2022-10-11T02:32:25.540Z,97.40
2022-10-11T02:35:00.128Z,97.10
2022-10-11T02:37:43.379Z,97.20
2022-10-11T02:40:10.342Z,97.30
2022-10-11T02:42:43.912Z,97.30
2022-10-11T02:45:29.755Z,97.20
2022-10-11T02:47:57.594Z,97.30
2022-10-11T02:50:24.461Z,97.30
2022-10-11T02:52:51.326Z,97.30
2022-10-11T02:55:18.145Z,97.30
2022-10-11T02:57:44.905Z,97.10
2022-10-11T03:00:12.401Z,97.20
2022-10-11T03:02:39.201Z,97.10
2022-10-11T03:05:06.317Z,97.10
2022-10-11T03:07:33.026Z,97.00
2022-10-11T03:09:59.765Z,97.00
2022-10-11T03:12:26.513Z,96.90
2022-10-11T03:14:53.194Z,96.80
2022-10-11T03:17:35.997Z,96.80
2022-10-11T03:20:03.908Z,96.70
2022-10-11T03:22:30.614Z,96.60
2022-10-11T03:25:01.119Z,96.60
2022-10-11T03:27:30.784Z,96.70
2022-10-11T03:30:00.402Z,97.00
2022-10-11T03:32:27.933Z,97.00
2022-10-11T03:34:54.756Z,97.20
2022-10-11T03:37:21.551Z,97.30
2022-10-11T03:39:48.794Z,97.20
2022-10-11T03:42:15.520Z,97.10
2022-10-11T03:44:42.364Z,97.40
2022-10-11T03:47:09.461Z,97.50
2022-10-11T03:49:41.223Z,97.60
2022-10-11T03:52:09.839Z,97.70
2022-10-11T03:54:36.659Z,97.80
2022-10-11T03:57:03.579Z,97.70
2022-10-11T03:59:30.388Z,97.90
2022-10-11T04:01:57.188Z,98.00
2022-10-11T04:04:24.051Z,98.00
2022-10-11T04:06:50.865Z,98.00
2022-10-11T04:09:17.769Z,98.00
2022-10-11T04:11:44.467Z,97.90
2022-10-11T04:14:13.436Z,97.70
2022-10-11T04:16:41.221Z,97.70
2022-10-11T04:19:12.641Z,97.70
2022-10-11T04:21:41.935Z,97.80
2022-10-11T04:24:13.740Z,97.90
2022-10-11T04:26:40.425Z,97.80
2022-10-11T04:29:07.177Z,97.80
2022-10-11T04:31:34.026Z,97.90
2022-10-11T04:34:01.074Z,97.80
2022-10-11T04:36:27.890Z,97.70
2022-10-11T04:38:56.166Z,97.60
2022-10-11T04:41:22.935Z,97.70
2022-10-11T04:43:52.550Z,97.60
2022-10-11T04:46:19.262Z,97.80
2022-10-11T04:48:45.938Z,97.80
2022-10-11T04:51:12.592Z,97.90
2022-10-11T04:53:39.372Z,98.00
2022-10-11T04:56:11.084Z,98.10
2022-10-11T04:58:41.561Z,98.20
2022-10-11T05:01:09.401Z,98.30
2022-10-11T05:03:36.401Z,98.10
2022-10-11T05:06:07.111Z,98.00
2022-10-11T05:08:34.387Z,98.10
2022-10-11T05:11:06.764Z,98.10
2022-10-11T05:13:35.165Z,98.30
2022-10-11T05:16:04.016Z,98.30
2022-10-11T05:18:34.216Z,98.40
2022-10-11T05:21:08.980Z,98.50
2022-10-11T05:23:37.127Z,98.40
2022-10-11T05:26:04.609Z,98.30
2022-10-11T05:28:32.091Z,98.50
2022-10-11T05:30:58.989Z,98.60
2022-10-11T05:33:26.112Z,98.80
2022-10-11T05:35:53.229Z,98.90
2022-10-11T05:38:20.145Z,99.10
2022-10-11T05:40:49.290Z,99.20
2022-10-11T05:43:16.230Z,99.30
2022-10-11T05:45:44.622Z,99.30
2022-10-11T05:48:12.287Z,99.40
2022-10-11T05:50:39.670Z,99.50
2022-10-11T05:53:06.932Z,99.90
2022-10-11T05:55:41.470Z,99.90
2022-10-11T05:58:12.348Z,99.90
2022-10-11T06:00:39.101Z,99.90
2022-10-11T06:03:07.932Z,99.90
2022-10-11T06:05:35.610Z,99.90
2022-10-11T06:08:03.558Z,99.90
2022-10-11T06:10:30.345Z,99.90
2022-10-11T06:12:57.225Z,99.90
2022-10-11T06:15:24.179Z,99.90
2022-10-11T06:17:51.368Z,99.90
2022-10-11T06:20:18.271Z,99.90
2022-10-11T06:22:44.983Z,99.90
2022-10-11T06:25:11.789Z,99.90
2022-10-11T06:27:38.539Z,99.90
2022-10-11T06:30:05.814Z,99.90
2022-10-11T06:32:42.347Z,99.90
2022-10-11T06:35:09.539Z,99.90
2022-10-11T06:37:36.377Z,99.90
2022-10-11T06:40:03.318Z,99.90
2022-10-11T06:42:30.078Z,99.90
2022-10-11T06:44:56.844Z,99.90
2022-10-11T06:47:23.614Z,99.90
2022-10-11T06:49:50.309Z,99.90
2022-10-11T06:52:17.024Z,99.90
2022-10-11T06:54:44.993Z,99.90
2022-10-11T06:57:12.052Z,99.90
2022-10-11T06:59:38.754Z,99.90
2022-10-11T07:02:08.748Z,99.90
2022-10-11T07:04:35.559Z,99.90
2022-10-11T07:07:02.232Z,99.90
2022-10-11T07:09:28.905Z,99.90
2022-10-11T07:11:55.706Z,99.90
2022-10-11T07:14:22.591Z,99.90
2022-10-11T07:16:49.312Z,99.90
2022-10-11T07:19:16.109Z,99.90
2022-10-11T07:21:42.807Z,99.90
2022-10-11T07:24:09.667Z,99.90
2022-10-11T07:26:38.476Z,99.90
2022-10-11T07:29:08.192Z,99.90
2022-10-11T07:31:37.426Z,99.90
2022-10-11T07:34:04.272Z,99.90
2022-10-11T07:36:31.021Z,99.90
2022-10-11T07:38:57.851Z,99.90
2022-10-11T07:41:24.530Z,99.90
2022-10-11T07:43:54.039Z,99.90
2022-10-11T07:46:20.857Z,99.90
2022-10-11T07:48:50.066Z,99.90
2022-10-11T07:51:19.741Z,99.90
2022-10-11T07:53:52.360Z,99.90
2022-10-11T07:56:21.803Z,99.90
2022-10-11T07:58:54.419Z,99.90
2022-10-11T08:01:21.752Z,99.90
2022-10-11T08:03:50.427Z,99.90
2022-10-11T08:06:20.190Z,99.90
2022-10-11T08:08:47.315Z,99.90
2022-10-11T08:11:22.851Z,99.90
2022-10-11T08:13:50.098Z,99.90
2022-10-11T08:16:17.262Z,99.90
2022-10-11T08:18:44.399Z,99.90
2022-10-11T08:21:18.742Z,99.90
2022-10-11T08:23:58.362Z,99.90
2022-10-11T08:26:38.373Z,99.90
2022-10-11T08:29:24.582Z,99.90
2022-10-11T08:32:23.424Z,99.90
2022-10-11T08:34:53.336Z,99.90
2022-10-11T08:37:47.439Z,99.90
2022-10-11T09:11:37.619Z,99.90
2022-10-11T09:14:49.096Z,99.90
2022-10-11T09:24:53.264Z,99.90
2022-10-11T09:28:27.643Z,99.90
2022-10-11T09:34:25.741Z,99.90
2022-10-11T09:41:05.524Z,99.90
2022-10-11T09:43:32.315Z,99.90
2022-10-11T09:46:02.593Z,99.90
2022-10-11T09:49:40.632Z,99.90
2022-10-11T10:33:30.880Z,97.10
2022-10-11T10:36:14.238Z,95.90
2022-10-11T10:38:54.533Z,95.90
2022-10-11T10:41:21.275Z,95.50
2022-10-11T10:43:57.174Z,95.00
2022-10-11T10:46:26.459Z,94.70
2022-10-11T10:49:51.914Z,94.20
2022-10-11T10:52:45.077Z,94.00
2022-10-11T10:55:25.285Z,93.90
2022-10-11T10:58:06.384Z,94.00
2022-10-11T11:00:49.389Z,93.80
2022-10-11T11:03:48.512Z,93.30
2022-10-11T11:06:48.852Z,93.30
2022-10-11T11:09:38.716Z,92.90
2022-10-11T11:12:23.424Z,92.30
2022-10-11T11:14:55.911Z,91.90
2022-10-11T11:17:36.442Z,91.20
2022-10-11T11:20:31.628Z,91.30
2022-10-11T11:23:27.231Z,90.40
2022-10-11T11:26:15.339Z,90.50
2022-10-11T11:29:12.974Z,90.10
2022-10-11T11:31:57.669Z,88.30
2022-10-11T11:34:31.148Z,88.20
2022-10-11T11:37:06.582Z,86.20
2022-10-11T11:39:45.736Z,84.00
2022-10-11T11:42:15.408Z,82.40
2022-10-11T11:44:46.915Z,81.00
2022-10-11T11:47:23.941Z,79.00
2022-10-11T11:50:23.016Z,78.80
2022-10-11T11:52:59.301Z,80.00
2022-10-11T11:55:25.922Z,80.20
2022-10-11T11:57:55.535Z,78.90
2022-10-11T12:00:26.606Z,79.60
2022-10-11T12:03:09.574Z,81.90
2022-10-11T12:05:36.817Z,83.40
2022-10-11T12:08:07.132Z,84.50
2022-10-11T12:11:03.851Z,82.10
2022-10-11T12:13:39.797Z,79.00
2022-10-11T12:16:06.509Z,75.70
2022-10-11T12:18:41.923Z,76.70
2022-10-11T12:21:35.242Z,76.70
2022-10-11T12:24:24.552Z,75.00
2022-10-11T12:26:55.832Z,76.00
2022-10-11T12:29:31.538Z,75.80
2022-10-11T12:32:00.946Z,73.10
2022-10-11T12:34:43.113Z,70.10
2022-10-11T12:37:19.496Z,68.70
2022-10-11T12:39:55.758Z,67.50
2022-10-11T12:42:32.322Z,66.70
2022-10-11T12:45:13.918Z,66.60
2022-10-11T12:47:52.027Z,67.00
2022-10-11T12:50:37.056Z,64.40
2022-10-11T12:53:31.333Z,63.30
2022-10-11T12:56:09.126Z,63.60
2022-10-11T12:58:41.266Z,65.60
2022-10-11T13:01:09.999Z,65.90
2022-10-11T13:03:40.039Z,65.30
2022-10-11T13:06:25.030Z,64.50
2022-10-11T13:09:11.310Z,64.40
2022-10-11T13:11:49.455Z,63.20
2022-10-11T13:14:22.123Z,61.30
2022-10-11T13:17:04.808Z,61.50
2022-10-11T13:19:37.185Z,60.80
2022-10-11T13:22:17.505Z,60.40
2022-10-11T13:24:46.829Z,60.70
2022-10-11T13:27:23.692Z,60.30
2022-10-11T13:29:55.514Z,61.70
2022-10-11T13:32:28.263Z,60.50
2022-10-11T13:35:03.450Z,59.70
2022-10-11T13:37:31.140Z,59.70
2022-10-11T13:39:58.826Z,60.30
2022-10-11T13:42:34.347Z,59.80
2022-10-11T13:45:01.508Z,61.10
2022-10-11T13:47:30.749Z,58.80
2022-10-11T13:50:11.380Z,59.70
2022-10-11T13:53:00.787Z,59.40
2022-10-11T13:55:38.683Z,60.60
2022-10-11T13:58:18.975Z,60.50
2022-10-11T14:01:27.988Z,61.40
2022-10-11T14:04:05.157Z,62.40
2022-10-11T14:06:46.757Z,63.60
2022-10-11T14:09:22.663Z,64.90
2022-10-11T14:11:52.250Z,66.20
2022-10-11T14:14:47.915Z,66.20
2022-10-11T14:17:31.921Z,66.30
2022-10-11T14:20:21.540Z,66.60
2022-10-11T14:22:52.004Z,67.30
2022-10-11T14:25:22.041Z,67.50
2022-10-11T14:27:51.879Z,66.80
2022-10-11T14:30:26.515Z,65.20
2022-10-11T14:32:55.006Z,63.90
2022-10-11T14:35:30.789Z,62.80
2022-10-11T14:37:57.627Z,63.50
2022-10-11T14:40:31.008Z,65.10
2022-10-11T14:42:57.877Z,62.90
2022-10-11T14:45:27.220Z,61.80
2022-10-11T14:47:56.992Z,61.40
2022-10-11T14:50:42.575Z,62.10
2022-10-11T14:53:13.254Z,61.40
2022-10-11T14:55:41.493Z,61.40
2022-10-11T14:58:09.818Z,61.00
2022-10-11T15:00:37.367Z,60.60
2022-10-11T15:03:07.016Z,60.20
2022-10-11T15:05:34.490Z,60.30
2022-10-11T15:08:02.543Z,60.00
2022-10-11T15:10:35.933Z,60.00
2022-10-11T15:13:06.923Z,59.80
2022-10-11T15:15:40.651Z,59.90
2022-10-11T15:18:13.525Z,60.20
2022-10-11T15:20:45.166Z,59.80
2022-10-11T15:23:14.277Z,59.40
2022-10-11T15:25:43.868Z,59.30
2022-10-11T15:28:34.120Z,58.70
2022-10-11T15:31:01.057Z,59.30
2022-10-11T15:33:27.854Z,58.90
2022-10-11T15:35:56.814Z,59.10
2022-10-11T15:38:25.357Z,59.00
2022-10-11T15:40:53.104Z,59.70
2022-10-11T15:43:24.510Z,59.70
2022-10-11T15:45:51.877Z,60.00
2022-10-11T15:48:20.778Z,59.70
2022-10-11T15:50:49.274Z,59.80
2022-10-11T15:53:26.268Z,59.90
2022-10-11T15:55:57.195Z,61.20
2022-10-11T15:58:30.573Z,60.10
2022-10-11T16:01:05.261Z,61.40
2022-10-11T16:03:35.850Z,62.10
2022-10-11T16:06:06.017Z,62.70
2022-10-11T16:08:34.113Z,63.20
2022-10-11T16:11:00.964Z,64.40
2022-10-11T16:13:27.992Z,65.60
2022-10-11T16:15:59.770Z,67.20
2022-10-11T16:18:35.280Z,68.30
2022-10-11T16:21:07.680Z,69.10
2022-10-11T16:23:34.935Z,70.20
2022-10-11T16:26:05.953Z,70.80
2022-10-11T16:28:33.375Z,71.50
2022-10-11T16:31:00.658Z,72.10
2022-10-11T16:33:27.646Z,72.60
2022-10-11T16:36:14.354Z,73.20
2022-10-11T16:38:41.128Z,73.40
2022-10-11T16:41:10.271Z,73.80
2022-10-11T16:43:37.045Z,74.00
2022-10-11T16:46:04.040Z,74.50
2022-10-11T16:48:31.242Z,74.70
2022-10-11T16:51:07.684Z,75.00
2022-10-11T16:53:35.318Z,75.10
2022-10-11T16:56:07.426Z,75.40
2022-10-11T16:58:34.908Z,75.90
2022-10-11T17:01:02.045Z,76.00
2022-10-11T17:03:29.915Z,76.60
2022-10-11T17:05:59.679Z,77.30
2022-10-11T17:08:26.704Z,77.60
2022-10-11T17:10:57.808Z,78.20
2022-10-11T17:13:26.761Z,78.70
2022-10-11T17:15:53.467Z,79.30
2022-10-11T17:18:22.105Z,80.00
2022-10-11T17:20:48.945Z,80.60
2022-10-11T17:23:15.930Z,81.10
2022-10-11T17:25:49.742Z,81.30
2022-10-11T17:28:21.603Z,81.60
2022-10-11T17:30:59.255Z,82.20
2022-10-11T17:33:27.093Z,82.80
2022-10-11T17:35:57.867Z,83.10
2022-10-11T17:38:32.050Z,83.40
2022-10-11T17:41:11.225Z,83.70
2022-10-11T17:43:38.537Z,83.90
2022-10-11T17:46:06.643Z,84.30
2022-10-11T17:48:39.068Z,84.60
2022-10-11T17:51:19.260Z,84.90
2022-10-11T17:53:48.217Z,85.00
2022-10-11T17:56:17.307Z,85.20
2022-10-11T17:58:49.409Z,85.40
2022-10-11T18:01:20.334Z,85.70
2022-10-11T18:03:56.501Z,86.10
2022-10-11T18:06:24.362Z,86.80
2022-10-11T18:08:51.137Z,87.20
2022-10-11T18:11:19.369Z,87.60
2022-10-11T18:13:51.140Z,88.10
2022-10-11T18:16:22.765Z,88.50
2022-10-11T18:18:50.242Z,88.80
2022-10-11T18:21:19.698Z,89.00
2022-10-11T18:23:49.169Z,89.10
2022-10-11T18:26:29.401Z,89.20
2022-10-11T18:28:58.458Z,89.50
2022-10-11T18:31:28.496Z,89.80
2022-10-11T18:33:55.673Z,90.00
2022-10-11T18:36:25.695Z,90.00
2022-10-11T18:38:58.954Z,90.00
2022-10-11T18:41:31.720Z,89.90
2022-10-11T18:44:01.010Z,90.10
2022-10-11T18:46:30.670Z,90.30
2022-10-11T18:48:58.845Z,90.30
2022-10-11T18:51:31.158Z,90.40
2022-10-11T18:54:00.778Z,90.60
2022-10-11T18:56:28.660Z,90.70
2022-10-11T18:58:56.673Z,90.60
2022-10-11T19:01:34.640Z,90.70
2022-10-11T19:04:06.300Z,90.70
2022-10-11T19:06:39.719Z,90.90
2022-10-11T19:09:10.282Z,90.80
2022-10-11T19:11:39.836Z,90.90
2022-10-11T19:14:36.596Z,91.00
2022-10-11T19:17:03.333Z,90.90
2022-10-11T19:19:37.360Z,91.00
2022-10-11T19:22:04.359Z,91.20
2022-10-11T19:24:31.895Z,91.30
2022-10-11T19:27:02.649Z,91.40
2022-10-11T19:29:30.585Z,91.40
2022-10-11T19:32:01.860Z,91.70
2022-10-11T19:34:31.338Z,91.40
2022-10-11T19:37:05.976Z,91.50
2022-10-11T19:39:35.454Z,91.60
2022-10-11T19:42:02.496Z,91.60
2022-10-11T19:44:29.166Z,91.70
2022-10-11T19:47:01.415Z,91.70
2022-10-11T19:49:31.235Z,91.70
2022-10-11T19:51:57.970Z,91.60
2022-10-11T19:54:28.995Z,91.60
2022-10-11T19:57:00.942Z,91.60
2022-10-11T19:59:32.889Z,91.80
2022-10-11T20:02:01.858Z,91.90
2022-10-11T20:07:15.186Z,92.10
2022-10-11T20:09:44.163Z,92.20
2022-10-11T20:12:10.915Z,92.20
2022-10-11T20:14:40.099Z,92.20
2022-10-11T20:17:06.890Z,92.20
2022-10-11T20:19:33.631Z,92.40
2022-10-11T20:22:01.451Z,92.40
2022-10-11T20:24:32.678Z,92.40
2022-10-11T20:27:05.913Z,93.00
2022-10-11T20:29:32.786Z,92.80
2022-10-11T20:31:59.718Z,92.80
2022-10-11T20:34:29.164Z,92.50
2022-10-11T20:36:58.195Z,92.60
2022-10-11T20:39:27.412Z,92.80
2022-10-11T20:41:54.126Z,92.90
2022-10-11T20:44:20.878Z,93.00
2022-10-11T20:46:47.649Z,93.00
2022-10-11T20:49:14.678Z,93.00
2022-10-11T20:51:43.820Z,93.10
2022-10-11T20:54:11.159Z,93.30
2022-10-11T20:56:38.541Z,93.30
2022-10-11T20:59:06.656Z,93.20
2022-10-11T21:01:39.630Z,93.10
2022-10-11T21:04:17.385Z,93.00
2022-10-11T21:06:44.173Z,93.00
2022-10-11T21:09:15.653Z,93.20
2022-10-11T21:11:43.527Z,93.20
2022-10-11T21:14:10.275Z,93.20
2022-10-11T21:16:36.996Z,93.10
2022-10-11T21:19:04.045Z,93.20
2022-10-11T21:21:31.268Z,93.30
2022-10-11T21:24:05.762Z,93.30
2022-10-11T21:26:38.565Z,93.30
2022-10-11T21:29:05.384Z,93.30
2022-10-11T21:31:35.054Z,93.30
2022-10-11T21:34:02.393Z,93.40
2022-10-11T21:36:29.119Z,93.40
2022-10-11T21:38:56.519Z,93.60
2022-10-11T21:41:25.580Z,93.60
2022-10-11T21:43:53.152Z,93.60
2022-10-11T21:46:21.418Z,93.70
2022-10-11T21:48:50.080Z,93.70
2022-10-11T21:51:22.780Z,93.70
2022-10-11T21:53:51.286Z,93.60
2022-10-11T21:56:18.729Z,93.60
2022-10-11T21:58:49.229Z,94.00
2022-10-11T22:01:19.840Z,93.70
2022-10-11T22:03:46.797Z,93.70
2022-10-11T22:06:14.737Z,93.70
2022-10-11T22:08:41.806Z,93.90
2022-10-11T22:11:09.518Z,93.90
2022-10-11T22:13:36.472Z,94.00
2022-10-11T22:16:38.514Z,94.10
2022-10-11T22:19:05.508Z,94.20
2022-10-11T22:21:56.688Z,94.20
2022-10-11T22:24:27.287Z,94.30
2022-10-11T22:26:59.371Z,94.40
2022-10-11T22:29:50.379Z,94.50
2022-10-11T22:32:17.280Z,94.50
2022-10-11T22:34:44.451Z,94.60
2022-10-11T22:37:11.717Z,94.60
2022-10-11T22:58:35.735Z,95.50
2022-10-11T23:01:11.880Z,95.70
2022-10-11T23:04:31.919Z,95.70
2022-10-11T23:07:02.603Z,95.70
2022-10-11T23:09:31.893Z,95.90
2022-10-11T23:11:59.766Z,95.90
2022-10-11T23:14:26.637Z,96.00
2022-10-11T23:16:53.407Z,96.00
2022-10-11T23:19:20.283Z,96.00
2022-10-11T23:21:47.044Z,96.20
2022-10-11T23:24:14.105Z,96.30
2022-10-11T23:26:40.873Z,96.50
2022-10-11T23:29:07.871Z,96.40
2022-10-11T23:31:37.242Z,96.30
2022-10-11T23:34:05.634Z,96.20
2022-10-11T23:36:51.419Z,96.30
2022-10-11T23:39:18.534Z,96.20
2022-10-11T23:41:51.806Z,96.40
2022-10-11T23:44:21.364Z,96.70
2022-10-11T23:47:05.241Z,96.50
2022-10-11T23:49:36.450Z,96.30
2022-10-11T23:52:03.244Z,96.30
2022-10-11T23:55:33.329Z,96.40
2022-10-11T23:58:00.263Z,96.30
